Terminal Aerodrome Forecast
Issued by NWS

Home | Current Version | Previous Version | Text Only | Print | Product List | Glossary On
Versions: 1 2 3 4 5 6 7 8 9 10 11 12
551
FTUS42 TJSJ 011733
TAFJMZ
TAF
TJMZ 011733Z 0118/0218 VRB12KT 2SM TSRA BKN025CB
     FM012230 00000KT P6SM SCT060
     FM021630 27010KT P6SM VCTS BKN025CB
      AMD NOT SKED=

USA.gov is the U.S. government's official web portal to all federal, state and local government web resources and services.